Time;durP1;ratioP1;P1;durP2;ratioP2;P2;SDS_P1;SDS_P2;PMS_P1;PMS_P2;Temp;Humidity;BMP_temperature;BMP_pressure;BME280_temperature;BME280_humidity;BME280_pressure;Samples;Min_cycle;Max_cycle;Signal;HPM_P1;HPM_P2
2021/12/05 00:20:41;;;;;;;25.33;13.32;;;;;;;1.70;75.38;98762.03;4431720;32;34596;-78
2021/12/05 00:23:36;;;;;;;28.90;14.32;;;;;;;1.81;75.47;98765.53;4432641;32;34573;-78
2021/12/05 00:26:23;;;;;;;27.48;13.80;;;;;;;1.56;76.25;98763.69;4433078;32;35788;-78
2021/12/05 00:29:19;;;;;;;29.42;15.02;;;;;;;1.58;76.43;98756.94;4432064;32;34628;-78
2021/12/05 00:47:58;;;;;;;28.60;14.25;;;;;;;1.70;76.35;98767.44;4432848;32;35359;-77
2021/12/05 01:09:16;;;;;;;32.95;17.27;;;;;;;1.29;79.36;98762.12;4431313;32;33769;-77
2021/12/05 01:15:07;;;;;;;33.70;17.90;;;;;;;1.37;79.56;98760.78;4431182;32;35046;-77
2021/12/05 01:20:54;;;;;;;35.85;18.10;;;;;;;0.82;81.90;98760.50;4432062;32;36033;-78
2021/12/05 01:29:53;;;;;;;34.95;18.23;;;;;;;1.06;81.27;98744.63;4432679;32;35476;-78
2021/12/05 01:41:44;;;;;;;37.17;18.45;;;;;;;1.14;82.27;98751.34;4434790;32;34176;-80
2021/12/05 01:48:49;;;;;;;44.00;20.73;;;;;;;0.86;84.71;98750.81;4434271;32;34546;-80
2021/12/05 02:34:00;;;;;;;47.25;23.23;;;;;;;0.87;86.79;98698.47;4415613;32;34906;-84
2021/12/05 02:45:53;;;;;;;44.53;23.70;;;;;;;0.78;87.61;98689.31;4433724;32;36054;-80
2021/12/05 02:48:42;;;;;;;48.05;24.10;;;;;;;0.87;87.34;98692.28;4431678;32;34472;-82
2021/12/05 02:51:29;;;;;;;46.05;23.92;;;;;;;0.73;87.97;98683.94;4433410;32;35268;-81
2021/12/05 02:54:18;;;;;;;47.45;24.27;;;;;;;0.85;87.77;98689.03;4432338;32;34610;-80
2021/12/05 02:57:06;;;;;;;51.63;25.40;;;;;;;1.01;87.40;98687.97;4422465;32;34640;-80
2021/12/05 02:59:57;;;;;;;48.30;24.98;;;;;;;0.93;87.59;98690.41;4431818;32;34730;-79
2021/12/05 03:02:48;;;;;;;43.97;23.00;;;;;;;0.49;88.99;98694.44;4433099;32;33810;-79
2021/12/05 03:05:42;;;;;;;50.50;25.17;;;;;;;0.70;88.71;98692.56;4433053;32;34619;-80
2021/12/05 03:08:28;;;;;;;45.63;25.40;;;;;;;0.76;88.99;98696.06;4432848;32;35518;-80
2021/12/05 03:11:16;;;;;;;47.33;24.80;;;;;;;0.81;88.97;98698.75;4433036;32;35586;-78
2021/12/05 03:14:03;;;;;;;44.60;22.50;;;;;;;1.16;87.30;98691.72;4432117;32;34845;-80
2021/12/05 03:16:50;;;;;;;48.33;25.08;;;;;;;1.23;87.31;98695.75;4433773;32;34176;-79
2021/12/05 03:19:37;;;;;;;47.80;24.23;;;;;;;0.95;88.26;98699.84;4432332;32;34909;-80
2021/12/05 03:22:24;;;;;;;50.72;25.15;;;;;;;0.86;88.69;98690.69;4422322;32;34408;-80
2021/12/05 03:25:12;;;;;;;45.67;24.85;;;;;;;1.14;87.81;98692.00;4433262;32;34806;-80
2021/12/05 03:27:59;;;;;;;48.85;24.95;;;;;;;1.04;87.81;98692.00;4420158;32;34181;-81
2021/12/05 03:30:45;;;;;;;45.25;23.87;;;;;;;1.12;87.47;98694.16;4432264;32;35888;-80
2021/12/05 03:33:35;;;;;;;44.53;23.12;;;;;;;1.16;87.16;98716.00;4419671;32;35372;-80
2021/12/05 03:36:22;;;;;;;46.15;25.00;;;;;;;1.12;87.47;98711.16;4432702;32;35264;-81
2021/12/05 03:39:09;;;;;;;47.83;23.83;;;;;;;1.12;87.32;98704.94;4431436;32;35220;-81
2021/12/05 03:41:57;;;;;;;47.97;24.63;;;;;;;1.47;86.21;98700.56;4433028;32;35941;-81
2021/12/05 03:44:44;;;;;;;46.45;23.45;;;;;;;1.51;85.99;98699.75;4430113;32;35387;-81
2021/12/05 03:47:32;;;;;;;43.95;23.33;;;;;;;1.48;85.94;98704.87;4432622;32;34445;-81
2021/12/05 03:50:19;;;;;;;51.83;26.65;;;;;;;1.34;86.07;98689.25;4430298;32;34579;-80
2021/12/05 03:53:07;;;;;;;48.95;25.17;;;;;;;1.02;87.21;98705.75;4432705;32;34596;-80
2021/12/05 03:55:54;;;;;;;46.13;24.02;;;;;;;1.38;85.65;98696.81;4432787;32;34729;-80
2021/12/05 03:58:42;;;;;;;42.78;23.20;;;;;;;1.58;85.14;98699.44;4430920;32;34295;-79
2021/12/05 04:01:29;;;;;;;42.62;22.40;;;;;;;1.74;84.07;98695.63;4419994;32;34233;-80
2021/12/05 04:04:18;;;;;;;47.50;24.70;;;;;;;1.73;84.17;98695.88;4430259;32;36069;-79
2021/12/05 04:07:05;;;;;;;45.67;24.27;;;;;;;1.82;84.06;98693.41;4433334;32;34704;-80
2021/12/05 04:09:51;;;;;;;44.50;23.95;;;;;;;1.79;83.86;98698.31;4430098;32;35159;-80
2021/12/05 04:12:39;;;;;;;43.38;23.67;;;;;;;1.93;82.90;98692.28;4431647;32;34969;-80
2021/12/05 04:15:26;;;;;;;46.22;23.38;;;;;;;1.57;84.26;98695.94;4421295;32;35937;-80
2021/12/05 04:18:13;;;;;;;40.78;23.48;;;;;;;1.58;84.39;98691.34;4430898;32;35259;-80
2021/12/05 04:21:00;;;;;;;46.45;22.90;;;;;;;1.92;83.61;98685.28;4431855;32;34266;-80
2021/12/05 04:23:47;;;;;;;44.40;23.33;;;;;;;1.68;83.79;98694.03;4429320;32;34541;-80
2021/12/05 04:26:36;;;;;;;42.15;23.33;;;;;;;1.78;83.57;98696.66;4433193;32;35948;-80
2021/12/05 04:29:23;;;;;;;42.25;22.85;;;;;;;1.75;83.62;98699.94;4432437;32;34332;-80
2021/12/05 04:32:10;;;;;;;46.37;24.37;;;;;;;1.63;84.28;98701.34;4433679;32;34289;-81
2021/12/05 04:34:57;;;;;;;41.70;22.37;;;;;;;1.55;84.61;98691.91;4431192;32;35554;-80
2021/12/05 04:37:44;;;;;;;44.60;23.38;;;;;;;1.51;84.82;98697.03;4433198;32;34571;-81
2021/12/05 04:40:33;;;;;;;42.28;22.00;;;;;;;1.70;84.01;98710.75;4432050;32;34454;-81
2021/12/05 04:43:19;;;;;;;45.05;23.42;;;;;;;1.87;83.80;98698.81;4422265;32;35257;-81
2021/12/05 04:46:12;;;;;;;45.42;23.08;;;;;;;1.72;83.76;98696.97;4429793;32;34568;-80
2021/12/05 04:48:59;;;;;;;42.15;21.75;;;;;;;1.58;85.19;98691.34;4429166;32;34571;-81
2021/12/05 04:51:46;;;;;;;43.15;22.25;;;;;;;1.62;85.18;98689.69;4431839;32;34640;-82
2021/12/05 04:54:35;;;;;;;40.10;22.50;;;;;;;1.59;85.29;98684.84;4429917;32;35134;-81
2021/12/05 04:57:23;;;;;;;44.90;23.23;;;;;;;1.62;85.16;98688.91;4432083;32;35197;-81
2021/12/05 05:00:14;;;;;;;42.15;21.80;;;;;;;1.57;85.26;98689.75;4433628;32;34912;-81
2021/12/05 05:03:01;;;;;;;48.08;24.75;;;;;;;1.74;84.51;98686.72;4424607;32;34663;-81
2021/12/05 05:05:54;;;;;;;44.28;24.20;;;;;;;1.63;85.28;98694.03;4433834;32;34572;-81
2021/12/05 05:08:46;;;;;;;44.42;23.25;;;;;;;1.55;85.91;98690.00;4433988;32;34659;-81
2021/12/05 05:11:34;;;;;;;46.80;24.67;;;;;;;1.67;85.35;98678.88;4434417;32;35002;-81
2021/12/05 05:14:20;;;;;;;43.85;23.90;;;;;;;1.82;84.44;98696.13;4433742;32;34714;-81
2021/12/05 05:17:08;;;;;;;45.83;22.95;;;;;;;1.72;84.56;98696.97;4434499;32;35220;-81
2021/12/05 05:20:00;;;;;;;44.88;22.95;;;;;;;1.42;86.28;98705.97;4432133;32;35194;-81
2021/12/05 05:29:07;;;;;;;47.97;25.58;;;;;;;1.66;86.09;98709.69;4433396;32;34802;-80
2021/12/05 05:41:56;;;;;;;49.30;24.85;;;;;;;1.53;86.13;98716.47;4433626;32;35268;-81
2021/12/05 05:44:28;;;;;;;47.28;25.70;;;;;;;1.91;85.49;98716.09;4433894;32;34414;-82
2021/12/05 05:50:18;;;;;;;45.92;24.42;;;;;;;1.89;85.08;98704.75;4429024;32;34328;-81
2021/12/05 05:53:07;;;;;;;48.80;23.98;;;;;;;1.95;84.95;98700.94;4433332;32;35171;-82
2021/12/05 05:55:55;;;;;;;44.90;24.05;;;;;;;1.98;84.92;98694.97;4432514;32;35279;-82
2021/12/05 05:58:57;;;;;;;47.13;24.05;;;;;;;1.89;85.74;98702.03;4433521;32;36016;-82
2021/12/05 06:04:36;;;;;;;46.90;24.42;;;;;;;2.05;84.75;98717.09;4433465;32;35218;-81
2021/12/05 06:07:25;;;;;;;43.53;24.05;;;;;;;2.28;83.82;98712.09;4434423;32;35574;-81
2021/12/05 06:10:14;;;;;;;48.38;23.95;;;;;;;2.21;83.33;98715.91;4431682;32;34993;-82
2021/12/05 06:13:00;;;;;;;49.38;24.27;;;;;;;1.84;84.65;98715.56;4434292;32;34256;-81
2021/12/05 06:15:48;;;;;;;47.67;24.12;;;;;;;2.20;84.00;98716.22;4432471;32;34267;-81
2021/12/05 06:18:35;;;;;;;49.92;24.60;;;;;;;2.14;84.10;98717.34;4431060;32;34564;-81
2021/12/05 06:21:22;;;;;;;48.47;24.52;;;;;;;2.28;84.00;98726.44;4422618;32;35985;-81
2021/12/05 06:24:08;;;;;;;46.20;24.45;;;;;;;2.22;84.32;98728.37;4431281;32;35045;-81
2021/12/05 06:26:57;;;;;;;48.22;24.10;;;;;;;2.13;84.94;98729.22;4421956;32;34195;-80
2021/12/05 06:29:51;;;;;;;50.17;25.62;;;;;;;2.08;85.24;98732.75;4431001;32;35193;-80
2021/12/05 06:41:49;;;;;;;54.33;24.65;;;;;;;2.22;84.58;98720.25;4435408;32;35055;-81
2021/12/05 06:47:41;;;;;;;50.97;25.05;;;;;;;2.17;85.17;98714.06;4432170;32;34604;-81
2021/12/05 06:50:27;;;;;;;52.45;25.95;;;;;;;2.00;85.94;98719.81;4433597;32;33904;-81
2021/12/05 06:53:14;;;;;;;51.08;24.23;;;;;;;1.96;85.56;98734.97;4432265;32;34423;-81
2021/12/05 06:56:01;;;;;;;52.13;26.37;;;;;;;2.15;85.22;98744.06;4420603;32;35991;-80
2021/12/05 06:58:48;;;;;;;50.05;26.27;;;;;;;2.22;84.55;98743.75;4418855;32;34577;-81
2021/12/05 07:01:39;;;;;;;50.35;26.52;;;;;;;2.29;85.08;98743.47;4431544;32;35085;-81
2021/12/05 07:07:39;;;;;;;47.25;24.50;;;;;;;2.55;83.75;98753.03;4423774;32;34805;-81
2021/12/05 07:10:26;;;;;;;53.20;26.48;;;;;;;2.57;83.38;98759.00;4422723;32;34535;-81
2021/12/05 07:16:43;;;;;;;60.42;26.87;;;;;;;2.08;85.60;98761.66;4433533;32;34642;-81
2021/12/05 07:22:25;;;;;;;55.63;26.70;;;;;;;2.40;84.47;98758.56;4430509;32;34483;-81
2021/12/05 07:25:25;;;;;;;54.22;27.58;;;;;;;2.57;83.75;98761.69;4431767;32;34245;-81
2021/12/05 07:40:33;;;;;;;55.17;29.52;;;;;;;2.41;85.47;98752.03;4433524;32;34213;-82
2021/12/05 07:43:19;;;;;;;52.25;26.58;;;;;;;2.44;84.22;98770.41;4432897;32;34983;-73
2021/12/05 07:46:07;;;;;;;56.08;27.48;;;;;;;2.57;84.96;98777.12;4431163;32;34601;-73
2021/12/05 07:48:54;;;;;;;54.17;27.50;;;;;;;2.70;83.20;98782.72;4433004;32;34856;-73
2021/12/05 07:51:45;;;;;;;51.72;26.60;;;;;;;2.98;81.89;98782.25;4429469;32;34555;-73
2021/12/05 07:54:41;;;;;;;58.58;27.60;;;;;;;2.68;82.98;98776.78;4432459;32;36012;-73
2021/12/05 07:57:35;;;;;;;55.10;28.12;;;;;;;1.94;85.69;98780.38;4432625;32;32781;-73
2021/12/05 08:00:31;;;;;;;65.40;30.83;;;;;;;2.46;85.13;98787.16;4431379;32;35073;-73
2021/12/05 08:15:46;;;;;;;54.90;27.90;;;;;;;3.51;78.74;98777.75;4430770;32;34203;-72
2021/12/05 08:18:33;;;;;;;53.22;25.55;;;;;;;3.54;78.95;98785.28;4431127;32;34471;-72
2021/12/05 08:21:19;;;;;;;55.63;27.42;;;;;;;3.50;79.11;98778.84;4432971;32;34243;-73
2021/12/05 08:24:06;;;;;;;53.70;25.77;;;;;;;3.12;79.66;98784.03;4431703;32;34828;-72
2021/12/05 08:26:53;;;;;;;53.10;26.35;;;;;;;3.63;78.82;98776.56;4431022;32;34249;-73
2021/12/05 08:32:55;;;;;;;50.83;25.35;;;;;;;3.89;77.62;98788.72;4430497;32;34400;-74
2021/12/05 08:39:13;;;;;;;52.47;26.50;;;;;;;3.71;78.36;98794.91;4431940;32;35509;-72
2021/12/05 08:42:56;;;;;;;56.70;26.55;;;;;;;3.66;78.35;98786.81;4429360;32;34993;-74
2021/12/05 10:08:43;;;;;;;56.37;25.58;;;;;;;4.36;76.70;98734.78;4432623;32;34660;-76
2021/12/05 10:11:47;;;;;;;56.78;26.65;;;;;;;4.41;76.45;98727.38;4434458;32;35444;-76
2021/12/05 10:26:19;;;;;;;56.63;26.12;;;;;;;3.84;78.75;98734.59;4420983;32;34571;-74
2021/12/05 10:27:14;;;;;;;57.75;25.45;;;;;;;4.39;76.49;98742.34;4435384;32;35604;-73
2021/12/05 10:36:23;;;;;;;50.97;24.55;;;;;;;4.24;76.74;98727.03;4366595;32;33418;-72
2021/12/05 10:39:20;;;;;;;50.55;24.65;;;;;;;3.96;77.90;98715.22;4431112;32;35326;-73
2021/12/05 10:42:38;;;;;;;57.20;26.60;;;;;;;4.04;77.83;98730.81;4434688;32;35116;-72
2021/12/05 10:45:38;;;;;;;51.60;24.58;;;;;;;3.06;82.85;98719.41;4434810;32;35926;-71
2021/12/05 10:48:27;;;;;;;58.20;26.70;;;;;;;3.92;79.47;98712.25;4433762;32;34607;-72
2021/12/05 10:51:25;;;;;;;52.55;25.80;;;;;;;3.34;82.15;98720.50;4435339;32;34277;-72
2021/12/05 10:54:29;;;;;;;54.08;24.15;;;;;;;3.68;79.67;98709.59;4436147;32;34694;-71
2021/12/05 10:57:16;;;;;;;52.83;24.33;;;;;;;3.62;79.63;98702.59;4434562;32;35040;-71
2021/12/05 11:00:13;;;;;;;54.33;24.83;;;;;;;3.57;79.86;98717.00;4435587;32;34388;-71
2021/12/05 11:03:28;;;;;;;53.00;24.00;;;;;;;3.90;79.42;98716.34;4433608;32;34151;-71
2021/12/05 11:06:31;;;;;;;56.17;25.83;;;;;;;3.64;79.65;98705.00;4433400;32;34625;-71
2021/12/05 11:09:22;;;;;;;54.78;25.15;;;;;;;3.60;80.39;98692.03;4434971;32;34673;-71
2021/12/05 11:12:34;;;;;;;54.85;24.05;;;;;;;3.35;81.36;98700.44;4435441;32;34530;-71
2021/12/05 11:15:25;;;;;;;55.40;25.05;;;;;;;3.62;80.77;98699.91;4433407;32;34166;-71
2021/12/05 11:18:11;;;;;;;55.30;24.80;;;;;;;3.55;81.17;98700.22;4435690;32;34587;-72
2021/12/05 11:20:58;;;;;;;54.45;23.75;;;;;;;3.46;81.67;98698.44;4432977;32;35042;-72
2021/12/05 11:23:45;;;;;;;51.45;23.58;;;;;;;3.93;80.07;98697.63;4421870;32;34662;-71
2021/12/05 11:26:32;;;;;;;56.90;25.75;;;;;;;3.46;80.45;98714.69;4433373;32;34429;-72
2021/12/05 11:29:22;;;;;;;55.60;24.42;;;;;;;3.60;80.15;98713.72;4432623;32;34268;-72
2021/12/05 11:32:10;;;;;;;53.67;24.63;;;;;;;3.95;79.34;98708.97;4432589;32;35980;-72
2021/12/05 11:34:57;;;;;;;50.90;23.38;;;;;;;3.91;79.13;98701.72;4433085;32;34794;-72
2021/12/05 11:37:48;;;;;;;47.35;22.60;;;;;;;3.59;79.59;98695.88;4431641;32;33912;-72
2021/12/05 11:40:46;;;;;;;51.75;25.75;;;;;;;3.55;79.87;98697.50;4428159;32;34554;-72
2021/12/05 11:43:43;;;;;;;48.10;22.85;;;;;;;3.30;80.25;98704.03;4431135;32;35864;-71
2021/12/05 11:46:32;;;;;;;52.75;24.17;;;;;;;3.56;80.02;98701.84;4431036;32;35579;-71
2021/12/05 11:49:23;;;;;;;49.50;22.42;;;;;;;3.60;79.81;98708.31;4431194;32;34045;-71
2021/12/05 11:52:10;;;;;;;52.28;23.85;;;;;;;3.76;79.50;98700.03;4432842;32;34669;-73
2021/12/05 11:54:56;;;;;;;46.10;21.35;;;;;;;3.51;79.88;98703.81;4419613;32;35901;-72
2021/12/05 11:57:43;;;;;;;50.55;22.42;;;;;;;3.45;80.93;98694.94;4430736;32;34230;-70
2021/12/05 12:00:30;;;;;;;48.10;22.75;;;;;;;3.71;80.03;98697.37;4430402;32;34849;-70
2021/12/05 12:03:34;;;;;;;45.70;22.92;;;;;;;3.80;79.61;98701.84;4432075;32;34609;-70
2021/12/05 12:06:19;;;;;;;46.90;21.05;;;;;;;3.63;79.54;98689.87;4421989;32;34990;-70
2021/12/05 12:09:06;;;;;;;51.10;22.70;;;;;;;3.28;80.70;98698.09;4432444;32;34840;-70
2021/12/05 12:11:52;;;;;;;50.17;21.70;;;;;;;2.94;82.23;98690.00;4430039;32;35583;-70
2021/12/05 12:14:39;;;;;;;47.35;21.08;;;;;;;3.03;82.14;98704.53;4431202;32;34376;-70
2021/12/05 12:17:25;;;;;;;45.83;21.98;;;;;;;2.75;83.03;98714.22;4432267;32;34908;-70
2021/12/05 12:20:16;;;;;;;47.92;22.02;;;;;;;2.87;82.96;98717.38;4430782;32;34588;-70
2021/12/05 12:23:02;;;;;;;51.13;22.20;;;;;;;2.57;83.84;98714.91;4431118;32;33878;-70
2021/12/05 12:25:52;;;;;;;44.63;21.27;;;;;;;2.60;84.09;98698.94;4421936;32;34628;-71
2021/12/05 12:28:39;;;;;;;54.65;22.45;;;;;;;2.32;85.20;98700.47;4434480;32;36095;-70
2021/12/05 12:31:33;;;;;;;53.08;22.52;;;;;;;2.38;85.69;98717.47;4429023;32;33759;-70
2021/12/05 12:34:21;;;;;;;47.20;22.35;;;;;;;2.22;87.21;98716.72;4431734;32;34368;-70
2021/12/05 12:37:10;;;;;;;50.30;23.52;;;;;;;2.22;86.95;98690.53;4431854;32;35429;-70
2021/12/05 12:39:56;;;;;;;48.90;20.88;;;;;;;1.98;88.10;98679.56;4432342;32;34556;-70
2021/12/05 12:42:43;;;;;;;47.62;21.85;;;;;;;2.75;85.48;98694.50;4432231;32;34477;-70
2021/12/05 12:45:39;;;;;;;48.00;21.27;;;;;;;2.84;84.65;98687.38;4432235;32;34790;-70
2021/12/05 12:48:28;;;;;;;46.50;21.20;;;;;;;2.91;83.91;98679.75;4432072;32;34596;-70
2021/12/05 12:51:34;;;;;;;48.00;21.10;;;;;;;2.84;84.70;98685.47;4432476;32;34607;-70
2021/12/05 12:54:35;;;;;;;44.00;19.90;;;;;;;3.01;83.96;98697.78;4432462;32;34696;-70
2021/12/05 12:57:24;;;;;;;47.17;21.48;;;;;;;3.17;83.73;98699.28;4432774;32;35167;-70
2021/12/05 13:00:15;;;;;;;41.97;19.77;;;;;;;3.32;83.25;98687.47;4433342;32;34668;-70
2021/12/05 13:03:13;;;;;;;41.58;19.35;;;;;;;3.35;82.23;98689.63;4433289;32;36113;-70
2021/12/05 13:12:33;;;;;;;38.33;17.42;;;;;;;2.56;85.13;98665.44;4430693;32;35620;-70
2021/12/05 13:15:37;;;;;;;34.55;17.50;;;;;;;3.01;83.21;98668.81;4432369;32;35020;-71
2021/12/05 13:18:28;;;;;;;36.20;17.62;;;;;;;2.99;83.08;98670.19;4433194;32;34230;-70
2021/12/05 13:21:39;;;;;;;35.40;17.35;;;;;;;2.82;83.70;98663.31;4432595;32;34265;-70
2021/12/05 13:24:31;;;;;;;40.05;19.10;;;;;;;2.47;84.98;98657.09;4435156;32;37470;-70
2021/12/05 13:27:29;;;;;;;38.90;17.98;;;;;;;2.53;85.79;98655.16;4433917;32;36013;-70
2021/12/05 13:30:33;;;;;;;42.95;18.60;;;;;;;2.46;85.81;98646.56;4422598;32;35400;-71
2021/12/05 13:33:22;;;;;;;42.00;19.83;;;;;;;2.57;85.61;98631.09;4432961;32;34343;-71
2021/12/05 13:36:30;;;;;;;42.25;19.00;;;;;;;2.76;84.64;98628.47;4433562;32;34254;-71
2021/12/05 13:39:48;;;;;;;43.53;20.17;;;;;;;2.36;87.70;98614.19;4432299;32;34839;-71
2021/12/05 13:42:34;;;;;;;43.25;19.40;;;;;;;2.88;85.91;98615.38;4433653;32;34624;-71
2021/12/05 13:45:26;;;;;;;42.35;19.55;;;;;;;3.09;84.79;98611.38;4433222;32;34227;-71
2021/12/05 13:48:19;;;;;;;42.85;20.12;;;;;;;3.19;84.08;98609.62;4433756;32;34363;-71
2021/12/05 13:51:06;;;;;;;43.58;19.40;;;;;;;3.21;83.36;98618.28;4432959;32;34915;-71
2021/12/05 13:53:57;;;;;;;50.92;21.52;;;;;;;3.52;82.14;98627.69;4434441;32;34589;-71
2021/12/05 13:56:46;;;;;;;46.47;21.27;;;;;;;3.56;81.93;98644.97;4432424;32;34945;-71
2021/12/05 13:59:36;;;;;;;50.10;22.60;;;;;;;2.76;84.49;98653.66;4433114;32;34290;-71
2021/12/05 14:02:49;;;;;;;56.05;22.48;;;;;;;2.83;84.98;98643.28;4420773;32;35652;-71
2021/12/05 14:05:36;;;;;;;54.50;22.17;;;;;;;2.65;86.13;98652.91;4432949;32;34236;-70
2021/12/05 14:08:22;;;;;;;56.17;23.98;;;;;;;2.46;86.41;98657.38;4431748;32;33129;-71
2021/12/05 14:11:11;;;;;;;57.97;23.23;;;;;;;2.14;88.20;98660.59;4431496;32;34090;-70
2021/12/05 14:13:58;;;;;;;63.15;24.20;;;;;;;2.34;87.97;98654.25;4433714;32;34941;-70
2021/12/05 14:16:46;;;;;;;60.10;23.90;;;;;;;2.11;88.65;98656.53;4431647;32;35303;-71
2021/12/05 14:19:35;;;;;;;61.58;25.40;;;;;;;2.50;87.38;98661.13;4433261;32;35519;-70
2021/12/05 14:22:25;;;;;;;69.57;26.00;;;;;;;2.64;87.02;98658.59;4426347;32;35474;-70
2021/12/05 14:25:24;;;;;;;72.25;27.92;;;;;;;2.46;87.38;98655.47;4432573;32;34969;-70
2021/12/05 14:28:11;;;;;;;73.55;27.40;;;;;;;2.43;87.65;98657.94;4430585;32;34869;-71
2021/12/05 14:30:57;;;;;;;67.00;24.40;;;;;;;2.89;85.62;98663.00;4431133;32;34058;-71
2021/12/05 14:33:49;;;;;;;64.45;25.70;;;;;;;3.00;85.51;98667.22;4431723;32;35154;-71
2021/12/05 14:36:46;;;;;;;65.57;25.58;;;;;;;3.12;85.11;98670.34;4433120;32;36050;-71
2021/12/05 14:39:35;;;;;;;73.72;28.45;;;;;;;2.88;85.07;98677.63;4432150;32;35150;-71
2021/12/05 14:42:23;;;;;;;65.87;25.98;;;;;;;2.26;87.62;98677.25;4431618;32;35346;-71
2021/12/05 14:45:14;;;;;;;63.60;27.00;;;;;;;2.85;86.09;98673.59;4430116;32;34516;-71
2021/12/05 14:48:02;;;;;;;72.03;26.85;;;;;;;2.64;86.62;98688.34;4431117;32;34959;-73
2021/12/05 14:51:04;;;;;;;71.32;25.65;;;;;;;2.87;85.35;98678.69;4432036;32;35602;-71
2021/12/05 14:53:51;;;;;;;65.85;27.33;;;;;;;2.87;86.47;98679.50;4433349;32;35172;-71
2021/12/05 14:56:39;;;;;;;63.10;24.12;;;;;;;2.79;86.10;98676.59;4431964;32;37161;-70
2021/12/05 14:59:26;;;;;;;63.13;23.90;;;;;;;2.76;85.42;98671.75;4429490;32;34915;-70
2021/12/05 15:02:14;;;;;;;67.95;25.62;;;;;;;2.18;87.78;98675.94;4429549;32;34182;-70
2021/12/05 15:05:01;;;;;;;71.87;25.92;;;;;;;2.57;87.49;98672.44;4431735;32;35208;-70
2021/12/05 15:07:47;;;;;;;71.62;25.98;;;;;;;2.21;89.52;98677.28;4430101;32;33373;-71
2021/12/05 15:10:34;;;;;;;75.28;26.48;;;;;;;2.43;88.58;98674.19;4429572;32;34582;-70
2021/12/05 15:13:21;;;;;;;72.87;25.70;;;;;;;2.56;87.87;98678.97;4418031;32;34152;-70
2021/12/05 15:16:15;;;;;;;79.90;27.37;;;;;;;2.77;86.41;98673.38;4428628;32;33745;-71
2021/12/05 15:19:14;;;;;;;79.70;27.75;;;;;;;2.04;89.06;98672.25;4421391;32;34233;-71
2021/12/05 15:22:06;;;;;;;74.18;26.23;;;;;;;2.19;88.64;98671.34;4419481;32;34964;-71
2021/12/05 15:24:59;;;;;;;87.78;27.98;;;;;;;1.96;91.24;98667.41;4430211;32;35456;-70
2021/12/05 15:27:46;;;;;;;79.78;26.55;;;;;;;2.03;89.41;98676.84;4432035;32;34105;-70
2021/12/05 15:30:39;;;;;;;82.40;28.35;;;;;;;2.14;91.22;98672.19;4430272;32;35076;-70
2021/12/05 15:33:27;;;;;;;75.30;26.48;;;;;;;1.99;90.12;98656.03;4420684;32;35004;-71
2021/12/05 15:36:15;;;;;;;83.55;29.67;;;;;;;2.44;89.33;98662.25;4433363;32;34770;-70
2021/12/05 15:39:25;;;;;;;81.53;28.90;;;;;;;1.96;92.06;98667.41;4429905;32;34017;-70
2021/12/05 15:42:25;;;;;;;78.07;28.05;;;;;;;2.42;89.26;98670.66;4430773;32;35557;-71
2021/12/05 15:45:13;;;;;;;73.60;27.67;;;;;;;2.06;90.59;98669.28;4430677;32;35157;-70
2021/12/05 15:48:00;;;;;;;86.35;30.12;;;;;;;2.07;90.19;98654.66;4430885;32;34583;-70
2021/12/05 15:50:47;;;;;;;76.95;27.27;;;;;;;1.87;91.27;98660.97;4431410;32;34254;-71
2021/12/05 15:53:35;;;;;;;77.65;27.40;;;;;;;2.18;90.48;98662.44;4428311;32;34661;-70
2021/12/05 15:56:23;;;;;;;84.68;28.92;;;;;;;2.05;91.47;98663.06;4432005;32;34564;-70
2021/12/05 15:59:18;;;;;;;80.97;27.75;;;;;;;1.89;91.85;98672.31;4430131;32;33485;-70
2021/12/05 16:02:07;;;;;;;78.00;29.50;;;;;;;2.34;90.07;98671.25;4431197;32;34020;-70
2021/12/05 16:04:57;;;;;;;95.72;37.67;;;;;;;2.40;89.83;98670.13;4430727;32;35571;-70
2021/12/05 16:07:44;;;;;;;95.28;36.70;;;;;;;2.15;90.77;98679.19;4433040;32;34520;-70
2021/12/05 16:10:32;;;;;;;103.62;32.47;;;;;;;2.05;89.79;98690.09;4430678;32;33210;-70
2021/12/05 16:13:22;;;;;;;86.28;29.27;;;;;;;2.12;92.09;98689.78;4430931;32;34068;-70
2021/12/05 16:16:13;;;;;;;91.80;29.45;;;;;;;2.28;90.99;98675.09;4432720;32;34411;-70
2021/12/05 16:19:02;;;;;;;88.45;28.83;;;;;;;2.21;90.82;98671.88;4431675;32;35116;-71
2021/12/05 16:21:49;;;;;;;83.20;27.40;;;;;;;1.97;91.53;98682.56;4431121;32;35426;-71
2021/12/05 16:24:37;;;;;;;77.62;29.40;;;;;;;2.54;88.97;98691.13;4430157;32;35195;-71
2021/12/05 16:27:23;;;;;;;78.87;28.73;;;;;;;2.46;88.80;98696.03;4430754;32;34190;-70
2021/12/05 16:30:20;;;;;;;78.35;28.45;;;;;;;2.44;89.73;98702.81;4432206;32;35873;-70
2021/12/05 16:33:08;;;;;;;75.07;29.05;;;;;;;2.61;88.29;98714.06;4430113;32;34925;-70
2021/12/05 16:35:56;;;;;;;68.32;26.60;;;;;;;2.38;91.15;98725.56;4430354;32;33925;-70
2021/12/05 16:38:47;;;;;;;76.87;27.42;;;;;;;2.80;88.40;98741.25;4430441;32;34543;-70
2021/12/05 16:41:33;;;;;;;81.00;28.00;;;;;;;2.48;88.95;98739.03;4431632;32;35570;-70
2021/12/05 16:44:26;;;;;;;71.50;26.77;;;;;;;2.34;91.49;98713.72;4431511;32;34262;-70
2021/12/05 16:47:15;;;;;;;71.62;25.48;;;;;;;2.67;90.23;98712.13;4430375;32;35807;-71
2021/12/05 16:50:13;;;;;;;63.83;24.98;;;;;;;2.89;88.27;98711.69;4431535;32;34695;-70
2021/12/05 16:53:00;;;;;;;62.28;23.60;;;;;;;2.79;88.52;98714.47;4430632;32;35058;-71
2021/12/05 16:55:56;;;;;;;60.35;23.83;;;;;;;2.98;87.25;98714.59;4429854;32;35584;-71
2021/12/05 16:58:42;;;;;;;62.85;25.35;;;;;;;3.47;85.27;98719.84;4427879;32;34867;-71
2021/12/05 17:01:29;;;;;;;59.60;25.37;;;;;;;3.47;84.82;98727.97;4428617;32;35479;-71
2021/12/05 17:04:15;;;;;;;54.70;21.62;;;;;;;3.37;85.60;98717.22;4430759;32;34715;-70
2021/12/05 17:07:02;;;;;;;52.33;22.02;;;;;;;3.58;84.39;98726.72;4427034;32;34629;-71
2021/12/05 17:09:49;;;;;;;54.15;23.02;;;;;;;3.67;83.76;98723.41;4425614;32;33875;-71
2021/12/05 17:12:36;;;;;;;48.00;22.55;;;;;;;3.32;85.61;98734.31;4427422;32;33718;-70
2021/12/05 17:15:31;;;;;;;56.35;21.20;;;;;;;3.59;84.06;98736.50;4426976;32;35085;-70
2021/12/05 17:18:21;;;;;;;57.70;24.40;;;;;;;3.57;83.92;98748.72;4427020;32;35391;-70
2021/12/05 17:21:33;;;;;;;59.40;23.57;;;;;;;2.63;88.79;98752.44;4426735;32;35993;-70
2021/12/05 17:24:23;;;;;;;67.03;24.92;;;;;;;1.98;93.15;98751.72;4426800;32;33498;-70
2021/12/05 17:27:09;;;;;;;65.90;28.35;;;;;;;2.37;90.71;98754.50;4406156;32;34560;-70
2021/12/05 17:29:55;;;;;;;80.05;29.90;;;;;;;2.80;88.93;98748.56;4429606;32;34643;-70
2021/12/05 17:32:42;;;;;;;78.30;33.40;;;;;;;2.39;90.02;98752.34;4420978;32;33893;-70
2021/12/05 17:35:30;;;;;;;89.57;32.88;;;;;;;1.99;91.98;98753.31;4431951;32;34188;-70
2021/12/05 17:38:16;;;;;;;67.75;26.70;;;;;;;1.59;95.58;98763.16;4434432;32;35933;-70
2021/12/05 17:41:03;;;;;;;66.20;27.30;;;;;;;1.35;97.28;98761.03;4432129;32;35313;-69
2021/12/05 17:43:51;;;;;;;67.82;29.27;;;;;;;1.26;98.44;98759.97;4432218;32;34124;-70
2021/12/05 17:46:38;;;;;;;66.40;27.05;;;;;;;1.13;98.89;98763.22;4433637;32;35640;-69
2021/12/05 17:49:26;;;;;;;77.15;31.55;;;;;;;2.00;96.19;98760.34;4432409;32;34928;-69
2021/12/05 17:52:14;;;;;;;80.15;31.67;;;;;;;1.58;95.05;98766.94;4428041;32;35138;-70
2021/12/05 17:55:10;;;;;;;81.05;33.40;;;;;;;2.17;92.90;98768.94;4432408;32;35128;-69
2021/12/05 17:58:17;;;;;;;76.85;32.15;;;;;;;2.30;91.75;98764.00;4433840;32;34325;-69
2021/12/05 18:04:10;;;;;;;66.45;29.12;;;;;;;1.83;94.16;98762.56;4432006;32;34598;-70
2021/12/05 18:06:57;;;;;;;64.25;27.67;;;;;;;3.14;88.60;98754.78;4433605;32;34147;-70
2021/12/05 18:09:44;;;;;;;56.60;24.17;;;;;;;3.44;86.29;98749.38;4435503;32;35342;-69
2021/12/05 18:12:35;;;;;;;54.67;24.63;;;;;;;3.79;84.96;98753.63;4422622;32;35002;-70
2021/12/05 18:15:27;;;;;;;59.13;24.87;;;;;;;3.60;85.81;98746.22;4433689;32;34790;-69
2021/12/05 18:18:15;;;;;;;66.20;26.08;;;;;;;3.64;84.06;98749.16;4434164;32;34045;-69
2021/12/05 18:21:05;;;;;;;51.05;23.80;;;;;;;3.08;87.31;98745.09;4431994;32;34590;-69
2021/12/05 18:23:53;;;;;;;53.53;23.20;;;;;;;3.74;84.65;98738.22;4434370;32;34888;-70
2021/12/05 18:26:40;;;;;;;56.28;23.67;;;;;;;3.53;84.96;98734.94;4435748;32;35894;-70